sensor_id;sensor_type;location;lat;lon;timestamp;P1;durP1;ratioP1;P2;durP2;ratioP2
66633;SDS011;53546;52.184;5.596;2022-11-15T00:01:44;7.85;;;5.57;;
66633;SDS011;53546;52.184;5.596;2022-11-15T00:04:10;8.02;;;5.65;;
66633;SDS011;53546;52.184;5.596;2022-11-15T00:06:35;7.70;;;5.50;;
66633;SDS011;53546;52.184;5.596;2022-11-15T00:09:01;13.27;;;5.90;;
66633;SDS011;53546;52.184;5.596;2022-11-15T00:11:26;16.92;;;6.75;;
66633;SDS011;53546;52.184;5.596;2022-11-15T00:13:54;9.65;;;6.18;;
66633;SDS011;53546;52.184;5.596;2022-11-15T00:16:21;9.63;;;6.20;;
66633;SDS011;53546;52.184;5.596;2022-11-15T00:18:46;9.60;;;5.78;;
66633;SDS011;53546;52.184;5.596;2022-11-15T00:21:12;8.60;;;5.97;;
66633;SDS011;53546;52.184;5.596;2022-11-15T00:23:38;9.27;;;6.30;;
66633;SDS011;53546;52.184;5.596;2022-11-15T00:26:03;8.75;;;6.13;;
66633;SDS011;53546;52.184;5.596;2022-11-15T00:28:29;10.63;;;6.32;;
66633;SDS011;53546;52.184;5.596;2022-11-15T00:30:59;11.60;;;6.25;;
66633;SDS011;53546;52.184;5.596;2022-11-15T00:35:53;7.85;;;5.55;;
66633;SDS011;53546;52.184;5.596;2022-11-15T00:38:19;9.00;;;6.30;;
66633;SDS011;53546;52.184;5.596;2022-11-15T00:40:44;8.00;;;5.82;;
66633;SDS011;53546;52.184;5.596;2022-11-15T00:43:09;8.45;;;6.03;;
66633;SDS011;53546;52.184;5.596;2022-11-15T00:45:35;9.00;;;6.10;;
66633;SDS011;53546;52.184;5.596;2022-11-15T00:48:00;9.20;;;6.40;;
66633;SDS011;53546;52.184;5.596;2022-11-15T00:50:25;9.13;;;5.63;;
66633;SDS011;53546;52.184;5.596;2022-11-15T00:52:51;7.88;;;5.88;;
66633;SDS011;53546;52.184;5.596;2022-11-15T00:55:16;9.77;;;6.65;;
66633;SDS011;53546;52.184;5.596;2022-11-15T00:57:42;10.18;;;6.40;;
66633;SDS011;53546;52.184;5.596;2022-11-15T01:00:08;10.45;;;6.05;;
66633;SDS011;53546;52.184;5.596;2022-11-15T01:02:34;10.90;;;6.40;;
66633;SDS011;53546;52.184;5.596;2022-11-15T01:04:59;8.73;;;6.07;;
66633;SDS011;53546;52.184;5.596;2022-11-15T01:07:24;9.57;;;6.22;;
66633;SDS011;53546;52.184;5.596;2022-11-15T01:09:50;9.45;;;6.15;;
66633;SDS011;53546;52.184;5.596;2022-11-15T01:12:15;11.20;;;6.90;;
66633;SDS011;53546;52.184;5.596;2022-11-15T01:14:41;10.82;;;6.22;;
66633;SDS011;53546;52.184;5.596;2022-11-15T01:17:06;10.10;;;6.38;;
66633;SDS011;53546;52.184;5.596;2022-11-15T01:19:31;10.70;;;6.18;;
66633;SDS011;53546;52.184;5.596;2022-11-15T01:21:57;10.07;;;6.32;;
66633;SDS011;53546;52.184;5.596;2022-11-15T01:24:22;10.43;;;6.40;;
66633;SDS011;53546;52.184;5.596;2022-11-15T01:26:47;9.68;;;6.45;;
66633;SDS011;53546;52.184;5.596;2022-11-15T01:29:12;16.70;;;6.78;;
66633;SDS011;53546;52.184;5.596;2022-11-15T01:31:38;10.27;;;6.25;;
66633;SDS011;53546;52.184;5.596;2022-11-15T01:34:03;11.52;;;6.40;;
66633;SDS011;53546;52.184;5.596;2022-11-15T01:36:28;13.55;;;6.35;;
66633;SDS011;53546;52.184;5.596;2022-11-15T01:38:54;10.27;;;6.22;;
66633;SDS011;53546;52.184;5.596;2022-11-15T01:41:24;11.93;;;7.00;;
66633;SDS011;53546;52.184;5.596;2022-11-15T01:47:03;8.63;;;6.15;;
66633;SDS011;53546;52.184;5.596;2022-11-15T01:49:32;9.27;;;5.65;;
66633;SDS011;53546;52.184;5.596;2022-11-15T01:51:59;9.77;;;5.40;;
66633;SDS011;53546;52.184;5.596;2022-11-15T01:54:25;12.65;;;6.10;;
66633;SDS011;53546;52.184;5.596;2022-11-15T01:56:52;10.25;;;6.05;;
66633;SDS011;53546;52.184;5.596;2022-11-15T01:59:19;10.35;;;5.90;;
66633;SDS011;53546;52.184;5.596;2022-11-15T02:01:45;10.70;;;6.25;;
66633;SDS011;53546;52.184;5.596;2022-11-15T02:04:15;9.15;;;6.07;;
66633;SDS011;53546;52.184;5.596;2022-11-15T02:06:42;9.48;;;5.70;;
66633;SDS011;53546;52.184;5.596;2022-11-15T02:09:08;9.65;;;6.22;;
66633;SDS011;53546;52.184;5.596;2022-11-15T02:11:34;16.38;;;5.90;;
66633;SDS011;53546;52.184;5.596;2022-11-15T02:13:59;9.30;;;5.28;;
66633;SDS011;53546;52.184;5.596;2022-11-15T02:21:47;9.57;;;5.70;;
66633;SDS011;53546;52.184;5.596;2022-11-15T02:24:27;8.57;;;5.38;;
66633;SDS011;53546;52.184;5.596;2022-11-15T02:30:04;8.77;;;5.35;;
66633;SDS011;53546;52.184;5.596;2022-11-15T02:32:58;7.53;;;5.47;;
66633;SDS011;53546;52.184;5.596;2022-11-15T02:38:07;11.25;;;5.10;;
66633;SDS011;53546;52.184;5.596;2022-11-15T02:41:13;10.80;;;5.18;;
66633;SDS011;53546;52.184;5.596;2022-11-15T02:43:36;7.57;;;5.10;;
66633;SDS011;53546;52.184;5.596;2022-11-15T02:46:26;9.27;;;5.55;;
66633;SDS011;53546;52.184;5.596;2022-11-15T02:49:13;8.43;;;5.10;;
66633;SDS011;53546;52.184;5.596;2022-11-15T02:51:40;8.85;;;5.43;;
66633;SDS011;53546;52.184;5.596;2022-11-15T02:54:06;8.18;;;5.13;;
66633;SDS011;53546;52.184;5.596;2022-11-15T02:56:31;7.75;;;5.13;;
66633;SDS011;53546;52.184;5.596;2022-11-15T02:59:00;8.65;;;4.97;;
66633;SDS011;53546;52.184;5.596;2022-11-15T03:04:26;10.00;;;5.40;;
66633;SDS011;53546;52.184;5.596;2022-11-15T03:07:35;7.68;;;5.13;;
66633;SDS011;53546;52.184;5.596;2022-11-15T03:15:08;7.78;;;5.38;;
66633;SDS011;53546;52.184;5.596;2022-11-15T03:17:59;8.20;;;4.68;;
66633;SDS011;53546;52.184;5.596;2022-11-15T03:20:26;6.85;;;4.50;;
66633;SDS011;53546;52.184;5.596;2022-11-15T03:22:52;6.07;;;4.63;;
66633;SDS011;53546;52.184;5.596;2022-11-15T03:25:20;7.90;;;5.07;;
66633;SDS011;53546;52.184;5.596;2022-11-15T03:27:49;6.45;;;4.50;;
66633;SDS011;53546;52.184;5.596;2022-11-15T03:30:16;10.50;;;5.00;;
66633;SDS011;53546;52.184;5.596;2022-11-15T03:32:53;7.18;;;4.70;;
66633;SDS011;53546;52.184;5.596;2022-11-15T03:35:22;9.25;;;5.25;;
66633;SDS011;53546;52.184;5.596;2022-11-15T03:40:16;6.03;;;4.60;;
66633;SDS011;53546;52.184;5.596;2022-11-15T03:42:46;7.13;;;4.75;;
66633;SDS011;53546;52.184;5.596;2022-11-15T03:45:15;7.10;;;4.30;;
66633;SDS011;53546;52.184;5.596;2022-11-15T03:47:51;6.25;;;4.55;;
66633;SDS011;53546;52.184;5.596;2022-11-15T03:50:20;8.63;;;4.72;;
66633;SDS011;53546;52.184;5.596;2022-11-15T03:52:46;8.27;;;4.50;;
66633;SDS011;53546;52.184;5.596;2022-11-15T03:55:14;6.85;;;4.43;;
66633;SDS011;53546;52.184;5.596;2022-11-15T03:57:43;6.93;;;4.82;;
66633;SDS011;53546;52.184;5.596;2022-11-15T04:00:09;5.15;;;4.22;;
66633;SDS011;53546;52.184;5.596;2022-11-15T04:02:36;6.88;;;4.75;;
66633;SDS011;53546;52.184;5.596;2022-11-15T04:05:01;7.38;;;4.88;;
66633;SDS011;53546;52.184;5.596;2022-11-15T04:07:27;7.75;;;4.90;;
66633;SDS011;53546;52.184;5.596;2022-11-15T04:09:52;7.63;;;4.45;;
66633;SDS011;53546;52.184;5.596;2022-11-15T04:12:33;4.95;;;4.05;;
66633;SDS011;53546;52.184;5.596;2022-11-15T04:15:06;5.60;;;4.57;;
66633;SDS011;53546;52.184;5.596;2022-11-15T04:17:40;8.15;;;4.57;;
66633;SDS011;53546;52.184;5.596;2022-11-15T04:20:09;6.80;;;4.70;;
66633;SDS011;53546;52.184;5.596;2022-11-15T04:22:55;8.68;;;4.88;;
66633;SDS011;53546;52.184;5.596;2022-11-15T04:25:40;6.90;;;4.05;;
66633;SDS011;53546;52.184;5.596;2022-11-15T04:28:06;12.55;;;4.60;;
66633;SDS011;53546;52.184;5.596;2022-11-15T04:30:31;8.00;;;4.50;;
66633;SDS011;53546;52.184;5.596;2022-11-15T04:32:57;8.40;;;4.32;;
66633;SDS011;53546;52.184;5.596;2022-11-15T04:35:22;5.45;;;3.90;;
66633;SDS011;53546;52.184;5.596;2022-11-15T04:37:47;6.60;;;3.97;;
66633;SDS011;53546;52.184;5.596;2022-11-15T04:40:13;10.98;;;4.95;;
66633;SDS011;53546;52.184;5.596;2022-11-15T04:42:40;6.75;;;4.50;;
66633;SDS011;53546;52.184;5.596;2022-11-15T04:45:07;7.03;;;4.20;;
66633;SDS011;53546;52.184;5.596;2022-11-15T04:47:32;6.78;;;3.92;;
66633;SDS011;53546;52.184;5.596;2022-11-15T04:49:57;8.85;;;4.82;;
66633;SDS011;53546;52.184;5.596;2022-11-15T04:52:23;6.60;;;4.47;;
66633;SDS011;53546;52.184;5.596;2022-11-15T04:54:48;5.60;;;4.18;;
66633;SDS011;53546;52.184;5.596;2022-11-15T04:57:13;5.70;;;3.95;;
66633;SDS011;53546;52.184;5.596;2022-11-15T04:59:39;6.97;;;4.53;;
66633;SDS011;53546;52.184;5.596;2022-11-15T05:02:04;8.45;;;4.45;;
66633;SDS011;53546;52.184;5.596;2022-11-15T05:04:30;5.72;;;4.10;;
66633;SDS011;53546;52.184;5.596;2022-11-15T05:06:55;10.70;;;4.47;;
66633;SDS011;53546;52.184;5.596;2022-11-15T05:09:20;15.18;;;6.07;;
66633;SDS011;53546;52.184;5.596;2022-11-15T05:11:46;14.32;;;5.40;;
66633;SDS011;53546;52.184;5.596;2022-11-15T05:14:11;10.52;;;5.18;;
66633;SDS011;53546;52.184;5.596;2022-11-15T05:16:37;13.57;;;5.97;;
66633;SDS011;53546;52.184;5.596;2022-11-15T05:19:10;12.38;;;5.30;;
66633;SDS011;53546;52.184;5.596;2022-11-15T05:21:39;9.60;;;4.70;;
66633;SDS011;53546;52.184;5.596;2022-11-15T05:24:04;9.82;;;5.20;;
66633;SDS011;53546;52.184;5.596;2022-11-15T05:26:30;15.07;;;5.20;;
66633;SDS011;53546;52.184;5.596;2022-11-15T05:28:56;8.73;;;5.00;;
66633;SDS011;53546;52.184;5.596;2022-11-15T05:31:23;10.48;;;4.70;;
66633;SDS011;53546;52.184;5.596;2022-11-15T05:33:49;14.25;;;5.03;;
66633;SDS011;53546;52.184;5.596;2022-11-15T05:39:02;10.75;;;5.63;;
66633;SDS011;53546;52.184;5.596;2022-11-15T05:41:33;16.52;;;5.97;;
66633;SDS011;53546;52.184;5.596;2022-11-15T05:44:01;14.55;;;5.88;;
66633;SDS011;53546;52.184;5.596;2022-11-15T05:46:28;29.38;;;6.47;;
66633;SDS011;53546;52.184;5.596;2022-11-15T05:48:54;14.30;;;5.50;;
66633;SDS011;53546;52.184;5.596;2022-11-15T05:51:20;16.05;;;6.38;;
66633;SDS011;53546;52.184;5.596;2022-11-15T05:53:46;19.95;;;7.40;;
66633;SDS011;53546;52.184;5.596;2022-11-15T05:56:12;45.67;;;11.52;;
66633;SDS011;53546;52.184;5.596;2022-11-15T05:58:38;41.40;;;10.40;;
66633;SDS011;53546;52.184;5.596;2022-11-15T06:01:04;34.15;;;10.10;;
66633;SDS011;53546;52.184;5.596;2022-11-15T06:03:29;33.83;;;9.35;;
66633;SDS011;53546;52.184;5.596;2022-11-15T06:05:56;27.30;;;8.35;;
66633;SDS011;53546;52.184;5.596;2022-11-15T06:08:21;34.55;;;7.88;;
66633;SDS011;53546;52.184;5.596;2022-11-15T06:10:46;101.65;;;9.63;;
66633;SDS011;53546;52.184;5.596;2022-11-15T06:13:12;21.73;;;8.80;;
66633;SDS011;53546;52.184;5.596;2022-11-15T06:15:37;22.35;;;7.18;;
66633;SDS011;53546;52.184;5.596;2022-11-15T06:18:03;16.05;;;6.45;;
66633;SDS011;53546;52.184;5.596;2022-11-15T06:20:29;25.15;;;6.90;;
66633;SDS011;53546;52.184;5.596;2022-11-15T06:22:58;16.80;;;6.80;;
66633;SDS011;53546;52.184;5.596;2022-11-15T06:25:24;22.08;;;6.40;;
66633;SDS011;53546;52.184;5.596;2022-11-15T06:27:57;15.02;;;6.32;;
66633;SDS011;53546;52.184;5.596;2022-11-15T06:30:23;15.83;;;6.00;;
66633;SDS011;53546;52.184;5.596;2022-11-15T06:32:49;14.82;;;6.15;;
66633;SDS011;53546;52.184;5.596;2022-11-15T06:35:15;12.93;;;5.35;;
66633;SDS011;53546;52.184;5.596;2022-11-15T06:37:40;14.80;;;5.75;;
66633;SDS011;53546;52.184;5.596;2022-11-15T06:40:06;15.75;;;5.35;;
66633;SDS011;53546;52.184;5.596;2022-11-15T06:42:33;14.25;;;5.75;;
66633;SDS011;53546;52.184;5.596;2022-11-15T06:44:58;15.68;;;5.25;;
66633;SDS011;53546;52.184;5.596;2022-11-15T06:47:24;12.15;;;5.32;;
66633;SDS011;53546;52.184;5.596;2022-11-15T06:49:49;12.23;;;5.25;;
66633;SDS011;53546;52.184;5.596;2022-11-15T06:52:14;12.32;;;4.68;;
66633;SDS011;53546;52.184;5.596;2022-11-15T06:54:40;11.07;;;5.13;;
66633;SDS011;53546;52.184;5.596;2022-11-15T06:57:05;8.18;;;4.82;;
66633;SDS011;53546;52.184;5.596;2022-11-15T06:59:30;10.00;;;4.93;;
66633;SDS011;53546;52.184;5.596;2022-11-15T07:01:56;8.52;;;4.50;;
66633;SDS011;53546;52.184;5.596;2022-11-15T07:04:21;8.60;;;4.18;;
66633;SDS011;53546;52.184;5.596;2022-11-15T07:06:47;8.25;;;4.35;;
66633;SDS011;53546;52.184;5.596;2022-11-15T07:09:13;7.75;;;4.32;;
66633;SDS011;53546;52.184;5.596;2022-11-15T07:11:38;10.98;;;4.55;;
66633;SDS011;53546;52.184;5.596;2022-11-15T07:14:04;9.30;;;4.57;;
66633;SDS011;53546;52.184;5.596;2022-11-15T07:16:29;12.32;;;4.88;;
66633;SDS011;53546;52.184;5.596;2022-11-15T07:18:54;9.02;;;4.32;;
66633;SDS011;53546;52.184;5.596;2022-11-15T07:21:20;7.85;;;4.30;;
66633;SDS011;53546;52.184;5.596;2022-11-15T07:23:45;6.75;;;4.45;;
66633;SDS011;53546;52.184;5.596;2022-11-15T07:26:10;10.43;;;4.65;;
66633;SDS011;53546;52.184;5.596;2022-11-15T07:28:36;11.32;;;4.88;;
66633;SDS011;53546;52.184;5.596;2022-11-15T07:31:04;10.65;;;4.40;;
66633;SDS011;53546;52.184;5.596;2022-11-15T07:33:31;7.43;;;4.10;;
66633;SDS011;53546;52.184;5.596;2022-11-15T07:36:00;7.03;;;4.35;;
66633;SDS011;53546;52.184;5.596;2022-11-15T07:38:29;8.35;;;4.38;;
66633;SDS011;53546;52.184;5.596;2022-11-15T07:40:55;5.82;;;4.05;;
66633;SDS011;53546;52.184;5.596;2022-11-15T07:43:24;9.48;;;4.30;;
66633;SDS011;53546;52.184;5.596;2022-11-15T07:45:52;6.90;;;4.30;;
66633;SDS011;53546;52.184;5.596;2022-11-15T07:48:18;6.25;;;4.00;;
66633;SDS011;53546;52.184;5.596;2022-11-15T07:50:43;6.15;;;3.83;;
66633;SDS011;53546;52.184;5.596;2022-11-15T07:53:09;7.43;;;4.45;;
66633;SDS011;53546;52.184;5.596;2022-11-15T07:55:35;8.05;;;4.43;;
66633;SDS011;53546;52.184;5.596;2022-11-15T07:58:07;14.00;;;4.10;;
66633;SDS011;53546;52.184;5.596;2022-11-15T08:00:34;6.28;;;3.85;;
66633;SDS011;53546;52.184;5.596;2022-11-15T08:03:01;9.70;;;3.60;;
66633;SDS011;53546;52.184;5.596;2022-11-15T08:05:38;8.50;;;4.13;;
66633;SDS011;53546;52.184;5.596;2022-11-15T08:08:04;7.18;;;3.90;;
66633;SDS011;53546;52.184;5.596;2022-11-15T08:10:30;6.55;;;3.85;;
66633;SDS011;53546;52.184;5.596;2022-11-15T08:12:57;8.57;;;4.05;;
66633;SDS011;53546;52.184;5.596;2022-11-15T08:15:27;7.35;;;4.18;;
66633;SDS011;53546;52.184;5.596;2022-11-15T08:17:53;11.40;;;3.65;;
66633;SDS011;53546;52.184;5.596;2022-11-15T08:20:20;7.40;;;3.65;;
66633;SDS011;53546;52.184;5.596;2022-11-15T08:22:45;5.68;;;3.75;;
66633;SDS011;53546;52.184;5.596;2022-11-15T08:25:10;7.32;;;4.07;;
66633;SDS011;53546;52.184;5.596;2022-11-15T08:27:36;10.35;;;3.97;;
66633;SDS011;53546;52.184;5.596;2022-11-15T08:30:02;9.20;;;3.72;;
66633;SDS011;53546;52.184;5.596;2022-11-15T08:32:27;5.53;;;3.70;;
66633;SDS011;53546;52.184;5.596;2022-11-15T08:34:53;7.00;;;3.58;;
66633;SDS011;53546;52.184;5.596;2022-11-15T08:37:18;6.40;;;3.60;;
66633;SDS011;53546;52.184;5.596;2022-11-15T08:39:44;6.82;;;3.67;;
66633;SDS011;53546;52.184;5.596;2022-11-15T08:42:09;9.68;;;3.88;;
66633;SDS011;53546;52.184;5.596;2022-11-15T08:44:34;5.57;;;3.47;;
66633;SDS011;53546;52.184;5.596;2022-11-15T08:47:00;6.57;;;3.70;;
66633;SDS011;53546;52.184;5.596;2022-11-15T08:49:25;6.43;;;3.30;;
66633;SDS011;53546;52.184;5.596;2022-11-15T08:51:50;10.45;;;3.35;;
66633;SDS011;53546;52.184;5.596;2022-11-15T08:54:16;8.27;;;3.70;;
66633;SDS011;53546;52.184;5.596;2022-11-15T08:56:41;8.80;;;3.53;;
66633;SDS011;53546;52.184;5.596;2022-11-15T08:59:07;10.00;;;4.10;;
66633;SDS011;53546;52.184;5.596;2022-11-15T09:01:32;11.50;;;3.72;;
66633;SDS011;53546;52.184;5.596;2022-11-15T09:03:58;6.65;;;3.15;;
66633;SDS011;53546;52.184;5.596;2022-11-15T09:06:23;6.22;;;3.45;;
66633;SDS011;53546;52.184;5.596;2022-11-15T09:08:48;8.02;;;3.55;;
66633;SDS011;53546;52.184;5.596;2022-11-15T09:11:14;4.30;;;3.30;;
66633;SDS011;53546;52.184;5.596;2022-11-15T09:13:41;7.82;;;3.65;;
66633;SDS011;53546;52.184;5.596;2022-11-15T09:16:06;6.55;;;3.47;;
66633;SDS011;53546;52.184;5.596;2022-11-15T09:18:32;7.45;;;3.30;;
66633;SDS011;53546;52.184;5.596;2022-11-15T09:20:58;5.78;;;3.10;;
66633;SDS011;53546;52.184;5.596;2022-11-15T09:23:24;7.90;;;3.78;;
66633;SDS011;53546;52.184;5.596;2022-11-15T09:25:50;9.30;;;3.38;;
66633;SDS011;53546;52.184;5.596;2022-11-15T09:28:16;7.43;;;3.40;;
66633;SDS011;53546;52.184;5.596;2022-11-15T09:30:41;6.45;;;3.30;;
66633;SDS011;53546;52.184;5.596;2022-11-15T09:33:07;5.50;;;3.17;;
66633;SDS011;53546;52.184;5.596;2022-11-15T09:35:33;5.60;;;3.28;;
66633;SDS011;53546;52.184;5.596;2022-11-15T09:37:59;7.30;;;3.20;;
66633;SDS011;53546;52.184;5.596;2022-11-15T09:40:24;7.05;;;3.47;;
66633;SDS011;53546;52.184;5.596;2022-11-15T09:46:00;8.77;;;3.10;;
66633;SDS011;53546;52.184;5.596;2022-11-15T09:48:47;6.38;;;3.50;;
66633;SDS011;53546;52.184;5.596;2022-11-15T09:51:17;5.25;;;3.00;;
66633;SDS011;53546;52.184;5.596;2022-11-15T09:53:52;7.78;;;4.07;;
66633;SDS011;53546;52.184;5.596;2022-11-15T09:56:27;6.22;;;3.28;;
66633;SDS011;53546;52.184;5.596;2022-11-15T10:04:26;4.60;;;3.20;;
66633;SDS011;53546;52.184;5.596;2022-11-15T10:09:24;5.55;;;3.00;;
66633;SDS011;53546;52.184;5.596;2022-11-15T10:11:51;4.10;;;2.80;;
66633;SDS011;53546;52.184;5.596;2022-11-15T10:14:18;7.03;;;3.20;;
66633;SDS011;53546;52.184;5.596;2022-11-15T10:19:46;7.18;;;3.10;;
66633;SDS011;53546;52.184;5.596;2022-11-15T10:22:52;5.20;;;3.00;;
66633;SDS011;53546;52.184;5.596;2022-11-15T10:27:40;4.53;;;2.75;;
66633;SDS011;53546;52.184;5.596;2022-11-15T10:30:11;6.35;;;2.97;;
66633;SDS011;53546;52.184;5.596;2022-11-15T10:32:40;7.32;;;3.15;;
66633;SDS011;53546;52.184;5.596;2022-11-15T10:35:17;5.10;;;2.85;;
66633;SDS011;53546;52.184;5.596;2022-11-15T10:37:44;8.32;;;3.22;;
66633;SDS011;53546;52.184;5.596;2022-11-15T10:40:21;4.72;;;2.55;;
66633;SDS011;53546;52.184;5.596;2022-11-15T10:42:48;4.20;;;2.45;;
66633;SDS011;53546;52.184;5.596;2022-11-15T10:45:30;6.03;;;2.60;;
66633;SDS011;53546;52.184;5.596;2022-11-15T10:50:37;3.83;;;2.20;;
66633;SDS011;53546;52.184;5.596;2022-11-15T10:53:02;6.32;;;2.47;;
66633;SDS011;53546;52.184;5.596;2022-11-15T10:55:29;7.18;;;2.10;;
66633;SDS011;53546;52.184;5.596;2022-11-15T10:58:02;3.58;;;2.47;;
66633;SDS011;53546;52.184;5.596;2022-11-15T11:00:31;5.97;;;2.10;;
66633;SDS011;53546;52.184;5.596;2022-11-15T11:02:59;3.97;;;2.00;;
66633;SDS011;53546;52.184;5.596;2022-11-15T11:05:30;4.93;;;2.17;;
66633;SDS011;53546;52.184;5.596;2022-11-15T11:08:20;3.28;;;2.17;;
66633;SDS011;53546;52.184;5.596;2022-11-15T11:10:54;3.90;;;2.17;;
66633;SDS011;53546;52.184;5.596;2022-11-15T11:15:49;2.45;;;1.83;;
66633;SDS011;53546;52.184;5.596;2022-11-15T11:21:18;2.75;;;2.00;;
66633;SDS011;53546;52.184;5.596;2022-11-15T11:31:57;5.05;;;1.70;;
66633;SDS011;53546;52.184;5.596;2022-11-15T11:45:15;2.22;;;1.40;;
66633;SDS011;53546;52.184;5.596;2022-11-15T11:47:47;2.63;;;1.60;;
66633;SDS011;53546;52.184;5.596;2022-11-15T11:50:21;1.40;;;1.30;;
66633;SDS011;53546;52.184;5.596;2022-11-15T11:55:40;3.00;;;1.55;;
66633;SDS011;53546;52.184;5.596;2022-11-15T11:58:13;3.30;;;1.40;;
66633;SDS011;53546;52.184;5.596;2022-11-15T12:00:45;3.55;;;1.38;;
66633;SDS011;53546;52.184;5.596;2022-11-15T12:06:01;1.65;;;1.40;;
66633;SDS011;53546;52.184;5.596;2022-11-15T12:09:03;1.92;;;1.52;;
66633;SDS011;53546;52.184;5.596;2022-11-15T12:13:59;2.65;;;1.50;;
66633;SDS011;53546;52.184;5.596;2022-11-15T12:16:27;3.38;;;1.40;;
66633;SDS011;53546;52.184;5.596;2022-11-15T12:18:54;2.95;;;1.60;;
66633;SDS011;53546;52.184;5.596;2022-11-15T12:24:12;5.35;;;1.60;;
66633;SDS011;53546;52.184;5.596;2022-11-15T12:26:54;6.57;;;1.40;;
66633;SDS011;53546;52.184;5.596;2022-11-15T12:29:27;7.18;;;1.40;;
66633;SDS011;53546;52.184;5.596;2022-11-15T12:31:56;4.15;;;1.58;;
66633;SDS011;53546;52.184;5.596;2022-11-15T12:36:53;2.53;;;1.48;;
66633;SDS011;53546;52.184;5.596;2022-11-15T12:39:18;3.25;;;1.30;;
66633;SDS011;53546;52.184;5.596;2022-11-15T12:42:34;2.45;;;1.30;;
66633;SDS011;53546;52.184;5.596;2022-11-15T13:04:47;6.65;;;2.42;;
66633;SDS011;53546;52.184;5.596;2022-11-15T13:17:42;7.25;;;2.15;;
66633;SDS011;53546;52.184;5.596;2022-11-15T13:20:15;3.83;;;2.13;;
66633;SDS011;53546;52.184;5.596;2022-11-15T13:30:38;6.38;;;2.10;;
66633;SDS011;53546;52.184;5.596;2022-11-15T13:33:07;5.18;;;2.10;;
66633;SDS011;53546;52.184;5.596;2022-11-15T13:35:51;7.00;;;2.50;;
66633;SDS011;53546;52.184;5.596;2022-11-15T13:40:51;6.80;;;2.25;;
66633;SDS011;53546;52.184;5.596;2022-11-15T13:45:46;8.45;;;2.10;;
66633;SDS011;53546;52.184;5.596;2022-11-15T13:48:34;3.03;;;1.70;;
66633;SDS011;53546;52.184;5.596;2022-11-15T13:51:08;9.25;;;2.20;;
66633;SDS011;53546;52.184;5.596;2022-11-15T13:53:41;7.22;;;2.50;;
66633;SDS011;53546;52.184;5.596;2022-11-15T13:56:11;5.47;;;2.15;;
66633;SDS011;53546;52.184;5.596;2022-11-15T13:58:38;4.18;;;1.98;;
66633;SDS011;53546;52.184;5.596;2022-11-15T14:01:04;5.40;;;2.00;;
66633;SDS011;53546;52.184;5.596;2022-11-15T14:03:34;5.72;;;1.92;;
66633;SDS011;53546;52.184;5.596;2022-11-15T14:06:08;3.90;;;1.92;;
66633;SDS011;53546;52.184;5.596;2022-11-15T14:08:39;5.18;;;2.22;;
66633;SDS011;53546;52.184;5.596;2022-11-15T14:11:13;5.47;;;1.98;;
66633;SDS011;53546;52.184;5.596;2022-11-15T14:13:41;7.28;;;2.65;;
66633;SDS011;53546;52.184;5.596;2022-11-15T14:16:19;5.85;;;1.92;;
66633;SDS011;53546;52.184;5.596;2022-11-15T14:18:48;4.60;;;1.90;;
66633;SDS011;53546;52.184;5.596;2022-11-15T14:21:15;12.40;;;1.90;;
66633;SDS011;53546;52.184;5.596;2022-11-15T14:23:41;5.20;;;1.90;;
66633;SDS011;53546;52.184;5.596;2022-11-15T14:26:10;5.00;;;2.30;;
66633;SDS011;53546;52.184;5.596;2022-11-15T14:28:50;4.28;;;1.60;;
66633;SDS011;53546;52.184;5.596;2022-11-15T14:31:16;4.00;;;1.73;;
66633;SDS011;53546;52.184;5.596;2022-11-15T14:33:41;4.43;;;1.98;;
66633;SDS011;53546;52.184;5.596;2022-11-15T14:36:17;5.45;;;2.08;;
66633;SDS011;53546;52.184;5.596;2022-11-15T14:38:44;9.73;;;2.00;;
66633;SDS011;53546;52.184;5.596;2022-11-15T14:41:18;2.55;;;1.88;;
66633;SDS011;53546;52.184;5.596;2022-11-15T14:43:43;6.85;;;2.00;;
66633;SDS011;53546;52.184;5.596;2022-11-15T14:46:09;3.60;;;1.90;;
66633;SDS011;53546;52.184;5.596;2022-11-15T14:48:34;4.93;;;2.13;;
66633;SDS011;53546;52.184;5.596;2022-11-15T14:51:00;3.28;;;1.88;;
66633;SDS011;53546;52.184;5.596;2022-11-15T14:53:25;8.60;;;2.22;;
66633;SDS011;53546;52.184;5.596;2022-11-15T14:55:50;2.95;;;1.92;;
66633;SDS011;53546;52.184;5.596;2022-11-15T14:58:16;2.88;;;2.08;;
66633;SDS011;53546;52.184;5.596;2022-11-15T15:00:41;3.78;;;1.83;;
66633;SDS011;53546;52.184;5.596;2022-11-15T15:03:07;2.42;;;1.80;;
66633;SDS011;53546;52.184;5.596;2022-11-15T15:08:01;2.75;;;1.90;;
66633;SDS011;53546;52.184;5.596;2022-11-15T15:10:27;5.95;;;1.95;;
66633;SDS011;53546;52.184;5.596;2022-11-15T15:13:08;3.97;;;2.03;;
66633;SDS011;53546;52.184;5.596;2022-11-15T15:15:47;3.78;;;2.03;;
66633;SDS011;53546;52.184;5.596;2022-11-15T15:18:13;3.45;;;2.20;;
66633;SDS011;53546;52.184;5.596;2022-11-15T15:20:40;23.73;;;5.55;;
66633;SDS011;53546;52.184;5.596;2022-11-15T15:23:16;27.20;;;6.00;;
66633;SDS011;53546;52.184;5.596;2022-11-15T15:25:44;23.05;;;5.43;;
66633;SDS011;53546;52.184;5.596;2022-11-15T15:28:10;26.70;;;5.85;;
66633;SDS011;53546;52.184;5.596;2022-11-15T15:30:36;19.70;;;5.50;;
66633;SDS011;53546;52.184;5.596;2022-11-15T15:33:02;18.85;;;5.38;;
66633;SDS011;53546;52.184;5.596;2022-11-15T15:35:29;22.95;;;5.72;;
66633;SDS011;53546;52.184;5.596;2022-11-15T15:37:55;22.05;;;5.53;;
66633;SDS011;53546;52.184;5.596;2022-11-15T15:40:24;23.13;;;5.57;;
66633;SDS011;53546;52.184;5.596;2022-11-15T15:42:51;18.58;;;5.72;;
66633;SDS011;53546;52.184;5.596;2022-11-15T15:45:17;17.55;;;5.32;;
66633;SDS011;53546;52.184;5.596;2022-11-15T15:47:43;15.15;;;5.22;;
66633;SDS011;53546;52.184;5.596;2022-11-15T15:50:14;22.25;;;5.47;;
66633;SDS011;53546;52.184;5.596;2022-11-15T15:52:42;17.52;;;4.90;;
66633;SDS011;53546;52.184;5.596;2022-11-15T15:55:08;18.30;;;4.45;;
66633;SDS011;53546;52.184;5.596;2022-11-15T15:57:33;16.77;;;5.25;;
66633;SDS011;53546;52.184;5.596;2022-11-15T15:59:59;15.75;;;5.10;;
66633;SDS011;53546;52.184;5.596;2022-11-15T16:02:24;15.27;;;4.60;;
66633;SDS011;53546;52.184;5.596;2022-11-15T16:04:49;13.48;;;4.13;;
66633;SDS011;53546;52.184;5.596;2022-11-15T16:07:16;13.98;;;4.35;;
66633;SDS011;53546;52.184;5.596;2022-11-15T16:09:42;13.45;;;4.32;;
66633;SDS011;53546;52.184;5.596;2022-11-15T16:12:35;11.18;;;4.03;;
66633;SDS011;53546;52.184;5.596;2022-11-15T16:15:01;11.73;;;3.78;;
66633;SDS011;53546;52.184;5.596;2022-11-15T16:17:30;11.32;;;3.47;;
66633;SDS011;53546;52.184;5.596;2022-11-15T16:19:57;12.85;;;3.65;;
66633;SDS011;53546;52.184;5.596;2022-11-15T16:22:23;12.38;;;3.85;;
66633;SDS011;53546;52.184;5.596;2022-11-15T16:24:48;10.25;;;3.28;;
66633;SDS011;53546;52.184;5.596;2022-11-15T16:27:14;11.65;;;3.28;;
66633;SDS011;53546;52.184;5.596;2022-11-15T16:29:41;14.20;;;3.17;;
66633;SDS011;53546;52.184;5.596;2022-11-15T16:32:06;11.02;;;3.67;;
66633;SDS011;53546;52.184;5.596;2022-11-15T16:34:32;6.55;;;3.20;;
66633;SDS011;53546;52.184;5.596;2022-11-15T16:36:57;13.40;;;3.75;;
66633;SDS011;53546;52.184;5.596;2022-11-15T16:39:22;12.02;;;3.42;;
66633;SDS011;53546;52.184;5.596;2022-11-15T16:41:48;10.63;;;3.40;;
66633;SDS011;53546;52.184;5.596;2022-11-15T16:44:13;8.40;;;3.15;;
66633;SDS011;53546;52.184;5.596;2022-11-15T16:46:42;7.97;;;3.00;;
66633;SDS011;53546;52.184;5.596;2022-11-15T16:49:12;7.18;;;3.05;;
66633;SDS011;53546;52.184;5.596;2022-11-15T16:51:38;7.32;;;3.03;;
66633;SDS011;53546;52.184;5.596;2022-11-15T16:54:05;7.70;;;3.00;;
66633;SDS011;53546;52.184;5.596;2022-11-15T16:56:30;6.65;;;2.58;;
66633;SDS011;53546;52.184;5.596;2022-11-15T16:58:56;15.55;;;2.97;;
66633;SDS011;53546;52.184;5.596;2022-11-15T17:01:32;9.82;;;3.10;;
66633;SDS011;53546;52.184;5.596;2022-11-15T17:03:59;6.55;;;2.67;;